Time,TemperatureF,DewpointF,PressureIn,WindDirection,WindDirectionDegrees,WindSpeedMPH,WindSpeedGustMPH,Humidity,HourlyPrecipIn,Conditions,Clouds,dailyrainin,SolarRadiationWatts/m^2,SoftwareType,DateUTC
2013-02-18 00:01:00,24.0,12.0,-100.00,NE,39,11.0,21.0,60,0.00,,,0.00,0.000000,,2013-02-18 07:01:00,
2013-02-18 00:11:00,24.0,12.0,-100.00,NE,39,11.0,21.0,60,0.00,,,0.00,0.000000,,2013-02-18 07:11:00,
2013-02-18 00:21:00,24.0,12.0,-100.00,NE,39,11.0,21.0,60,0.00,,,0.00,0.000000,,2013-02-18 07:21:00,
2013-02-18 00:31:00,24.0,12.0,-100.00,NE,39,11.0,21.0,60,0.00,,,0.00,0.000000,,2013-02-18 07:31:00,
2013-02-18 00:52:00,24.0,9.0,-100.00,NE,34,13.0,19.0,53,0.00,,,0.00,0.000000,,2013-02-18 07:52:00,
2013-02-18 01:01:00,24.0,9.0,-100.00,NE,34,13.0,19.0,53,0.00,,,0.00,0.000000,,2013-02-18 08:01:00,
2013-02-18 01:11:00,24.0,9.0,-100.00,NE,34,13.0,19.0,53,0.00,,,0.00,0.000000,,2013-02-18 08:11:00,
2013-02-18 01:21:00,24.0,9.0,-100.00,NE,34,13.0,19.0,53,0.00,,,0.00,0.000000,,2013-02-18 08:21:00,
2013-02-18 01:32:00,24.0,9.0,-100.00,NE,34,13.0,19.0,53,0.00,,,0.00,0.000000,,2013-02-18 08:32:00,
2013-02-18 01:52:00,22.0,8.0,-100.00,NE,45,12.0,19.0,55,0.00,,,0.00,0.000000,,2013-02-18 08:52:00,
2013-02-18 02:02:00,22.0,8.0,-100.00,NE,45,12.0,19.0,55,0.00,,,0.00,0.000000,,2013-02-18 09:02:00,
2013-02-18 02:11:00,22.0,8.0,-100.00,NE,45,12.0,19.0,55,0.00,,,0.00,0.000000,,2013-02-18 09:11:00,
2013-02-18 02:22:00,22.0,8.0,-100.00,NE,45,12.0,19.0,55,0.00,,,0.00,0.000000,,2013-02-18 09:22:00,
2013-02-18 02:31:00,22.0,8.0,-100.00,NE,45,12.0,19.0,55,0.00,,,0.00,0.000000,,2013-02-18 09:31:00,
2013-02-18 02:52:00,20.0,7.0,-100.00,NE,40,8.0,15.0,56,0.00,,,0.00,0.000000,,2013-02-18 09:52:00,
2013-02-18 03:01:00,20.0,7.0,-100.00,NE,40,8.0,15.0,56,0.00,,,0.00,0.000000,,2013-02-18 10:01:00,
2013-02-18 03:11:00,20.0,7.0,-100.00,NE,40,8.0,15.0,56,0.00,,,0.00,0.000000,,2013-02-18 10:11:00,
2013-02-18 03:21:00,20.0,7.0,-100.00,NE,40,8.0,15.0,56,0.00,,,0.00,0.000000,,2013-02-18 10:21:00,
2013-02-18 03:31:00,20.0,7.0,-100.00,NE,40,8.0,15.0,56,0.00,,,0.00,0.000000,,2013-02-18 10:31:00,
2013-02-18 03:52:00,20.0,6.0,-100.00,NNE,24,8.0,11.0,54,0.00,,,0.00,0.000000,,2013-02-18 10:52:00,
2013-02-18 04:01:00,20.0,6.0,-100.00,NNE,24,8.0,11.0,54,0.00,,,0.00,0.000000,,2013-02-18 11:01:00,
2013-02-18 04:11:00,20.0,6.0,-100.00,NNE,24,8.0,11.0,54,0.00,,,0.00,0.000000,,2013-02-18 11:11:00,
2013-02-18 04:21:00,20.0,6.0,-100.00,NNE,24,8.0,11.0,54,0.00,,,0.00,0.000000,,2013-02-18 11:21:00,
2013-02-18 04:31:00,20.0,6.0,-100.00,NNE,24,8.0,11.0,54,0.00,,,0.00,0.000000,,2013-02-18 11:31:00,
2013-02-18 04:53:00,18.0,6.0,-100.00,SSE,162,2.0,10.0,59,0.00,,,0.00,0.000000,,2013-02-18 11:53:00,
2013-02-18 05:11:00,18.0,6.0,-100.00,SSE,162,2.0,10.0,59,0.00,,,0.00,0.000000,,2013-02-18 12:11:00,
2013-02-18 05:21:00,18.0,6.0,-100.00,SSE,162,2.0,10.0,59,0.00,,,0.00,0.000000,,2013-02-18 12:21:00,
2013-02-18 05:31:00,18.0,6.0,-100.00,SSE,162,2.0,10.0,59,0.00,,,0.00,0.000000,,2013-02-18 12:31:00,
2013-02-18 06:02:00,19.0,6.0,-100.00,NE,48,5.0,8.0,56,0.00,,,0.00,0.000000,,2013-02-18 13:02:00,
2013-02-18 06:12:00,19.0,6.0,-100.00,NE,48,5.0,8.0,56,0.00,,,0.00,0.000000,,2013-02-18 13:12:00,
2013-02-18 06:22:00,19.0,6.0,-100.00,NE,48,5.0,8.0,56,0.00,,,0.00,0.000000,,2013-02-18 13:22:00,
2013-02-18 06:31:00,19.0,6.0,-100.00,NE,48,5.0,8.0,56,0.00,,,0.00,0.000000,,2013-02-18 13:31:00,
2013-02-18 06:53:00,19.0,6.0,-100.00,NNE,31,6.0,11.0,56,0.00,,,0.00,0.000000,,2013-02-18 13:53:00,
2013-02-18 07:02:00,19.0,6.0,-100.00,NNE,31,6.0,11.0,56,0.00,,,0.00,0.000000,,2013-02-18 14:02:00,
2013-02-18 07:11:00,19.0,6.0,-100.00,NNE,31,6.0,11.0,56,0.00,,,0.00,0.000000,,2013-02-18 14:11:00,
2013-02-18 07:22:00,19.0,6.0,-100.00,NNE,31,6.0,11.0,56,0.00,,,0.00,0.000000,,2013-02-18 14:22:00,
2013-02-18 07:31:00,19.0,6.0,-100.00,NNE,31,6.0,11.0,56,0.00,,,0.00,0.000000,,2013-02-18 14:31:00,
2013-02-18 07:53:00,20.0,8.0,-100.00,ESE,123,2.0,8.0,58,0.00,,,-99.99,19.000000,,2013-02-18 14:53:00,
2013-02-18 08:02:00,20.0,8.0,-100.00,ESE,123,2.0,8.0,58,0.00,,,-99.99,19.000000,,2013-02-18 15:02:00,
2013-02-18 08:11:00,20.0,8.0,-100.00,ESE,123,2.0,8.0,58,0.00,,,-99.99,19.000000,,2013-02-18 15:11:00,
2013-02-18 08:22:00,20.0,8.0,-100.00,ESE,123,2.0,8.0,58,0.00,,,-99.99,19.000000,,2013-02-18 15:22:00,
2013-02-18 08:31:00,20.0,8.0,-100.00,ESE,123,2.0,8.0,58,0.00,,,-99.99,19.000000,,2013-02-18 15:31:00,
2013-02-18 08:52:00,23.0,8.0,-100.00,NE,53,5.0,9.0,52,0.00,,,0.00,198.000000,,2013-02-18 15:52:00,
2013-02-18 09:02:00,23.0,8.0,-100.00,NE,53,5.0,9.0,52,0.00,,,0.00,198.000000,,2013-02-18 16:02:00,
2013-02-18 09:11:00,23.0,8.0,-100.00,NE,53,5.0,9.0,52,0.00,,,0.00,198.000000,,2013-02-18 16:11:00,
2013-02-18 09:21:00,23.0,8.0,-100.00,NE,53,5.0,9.0,52,0.00,,,0.00,198.000000,,2013-02-18 16:21:00,
2013-02-18 09:31:00,23.0,8.0,-100.00,NE,53,5.0,9.0,52,0.00,,,0.00,198.000000,,2013-02-18 16:31:00,
2013-02-18 10:03:00,29.0,9.0,-100.00,East,88,2.0,6.0,43,0.00,,,0.00,399.000000,,2013-02-18 17:03:00,
2013-02-18 10:11:00,29.0,9.0,-100.00,East,88,2.0,6.0,43,0.00,,,0.00,399.000000,,2013-02-18 17:11:00,
2013-02-18 10:21:00,29.0,9.0,-100.00,East,88,2.0,6.0,43,0.00,,,0.00,399.000000,,2013-02-18 17:21:00,
2013-02-18 10:31:00,29.0,9.0,-100.00,East,88,2.0,6.0,43,0.00,,,0.00,399.000000,,2013-02-18 17:31:00,
2013-02-18 10:53:00,35.0,11.0,-100.00,NE,37,0.0,4.0,36,0.00,,,0.00,555.000000,,2013-02-18 17:53:00,
2013-02-18 11:02:00,35.0,11.0,-100.00,NE,37,0.0,4.0,36,0.00,,,0.00,555.000000,,2013-02-18 18:02:00,
2013-02-18 11:11:00,35.0,11.0,-100.00,NE,37,0.0,4.0,36,0.00,,,0.00,555.000000,,2013-02-18 18:11:00,
2013-02-18 11:22:00,35.0,11.0,-100.00,NE,37,0.0,4.0,36,0.00,,,0.00,555.000000,,2013-02-18 18:22:00,
2013-02-18 11:32:00,35.0,11.0,-100.00,NE,37,0.0,4.0,36,0.00,,,0.00,555.000000,,2013-02-18 18:32:00,
2013-02-18 11:53:00,32.0,8.0,-100.00,South,169,3.0,7.0,36,0.00,,,0.00,641.000000,,2013-02-18 18:53:00,
2013-02-18 12:02:00,32.0,8.0,-100.00,South,169,3.0,7.0,36,0.00,,,0.00,641.000000,,2013-02-18 19:02:00,
2013-02-18 12:12:00,32.0,8.0,-100.00,South,169,3.0,7.0,36,0.00,,,0.00,641.000000,,2013-02-18 19:12:00,
2013-02-18 12:21:00,32.0,8.0,-100.00,South,169,3.0,7.0,36,0.00,,,0.00,641.000000,,2013-02-18 19:21:00,
2013-02-18 12:32:00,32.0,8.0,-100.00,South,169,3.0,7.0,36,0.00,,,0.00,641.000000,,2013-02-18 19:32:00,
2013-02-18 12:53:00,33.0,5.0,-100.00,South,186,5.0,12.0,30,0.00,,,0.00,797.000000,,2013-02-18 19:53:00,
2013-02-18 13:02:00,33.0,5.0,-100.00,South,186,5.0,12.0,30,0.00,,,0.00,797.000000,,2013-02-18 20:02:00,
2013-02-18 13:12:00,33.0,5.0,-100.00,South,186,5.0,12.0,30,0.00,,,0.00,797.000000,,2013-02-18 20:12:00,
2013-02-18 13:22:00,33.0,5.0,-100.00,South,186,5.0,12.0,30,0.00,,,0.00,797.000000,,2013-02-18 20:22:00,
2013-02-18 13:32:00,33.0,5.0,-100.00,South,186,5.0,12.0,30,0.00,,,0.00,797.000000,,2013-02-18 20:32:00,
2013-02-18 13:53:00,33.0,0.0,-100.00,WSW,249,7.0,15.0,24,0.00,,,0.00,718.000000,,2013-02-18 20:53:00,
2013-02-18 14:02:00,33.0,0.0,-100.00,WSW,249,7.0,15.0,24,0.00,,,0.00,718.000000,,2013-02-18 21:02:00,
2013-02-18 14:11:00,33.0,0.0,-100.00,WSW,249,7.0,15.0,24,0.00,,,0.00,718.000000,,2013-02-18 21:11:00,
2013-02-18 14:21:00,33.0,0.0,-100.00,WSW,249,7.0,15.0,24,0.00,,,0.00,718.000000,,2013-02-18 21:21:00,
2013-02-18 14:31:00,33.0,0.0,-100.00,WSW,249,7.0,15.0,24,0.00,,,0.00,718.000000,,2013-02-18 21:31:00,
2013-02-18 14:53:00,34.0,4.0,-100.00,WSW,257,10.0,19.0,27,0.00,,,0.00,676.000000,,2013-02-18 21:53:00,
2013-02-18 15:02:00,34.0,4.0,-100.00,WSW,257,10.0,19.0,27,0.00,,,0.00,676.000000,,2013-02-18 22:02:00,
2013-02-18 15:12:00,34.0,4.0,-100.00,WSW,257,10.0,19.0,27,0.00,,,0.00,676.000000,,2013-02-18 22:12:00,
2013-02-18 15:22:00,34.0,4.0,-100.00,WSW,257,10.0,19.0,27,0.00,,,0.00,676.000000,,2013-02-18 22:22:00,
2013-02-18 15:32:00,34.0,4.0,-100.00,WSW,257,10.0,19.0,27,0.00,,,0.00,676.000000,,2013-02-18 22:32:00,
2013-02-18 15:53:00,32.0,6.0,-100.00,WSW,254,10.0,18.0,33,0.00,,,0.00,496.000000,,2013-02-18 22:53:00,
2013-02-18 16:02:00,32.0,6.0,-100.00,WSW,254,10.0,18.0,33,0.00,,,0.00,496.000000,,2013-02-18 23:02:00,
2013-02-18 16:12:00,32.0,6.0,-100.00,WSW,254,10.0,18.0,33,0.00,,,0.00,496.000000,,2013-02-18 23:12:00,
2013-02-18 16:22:00,32.0,6.0,-100.00,WSW,254,10.0,18.0,33,0.00,,,0.00,496.000000,,2013-02-18 23:22:00,
2013-02-18 16:31:00,32.0,6.0,-100.00,WSW,254,10.0,18.0,33,0.00,,,0.00,496.000000,,2013-02-18 23:31:00,
2013-02-18 16:53:00,30.0,4.0,-100.00,West,269,7.0,15.0,32,0.00,,,0.00,269.000000,,2013-02-18 23:53:00,
2013-02-18 17:02:00,30.0,4.0,-100.00,West,269,7.0,15.0,32,0.00,,,0.00,269.000000,,2013-02-19 00:02:00,
2013-02-18 17:12:00,30.0,4.0,-100.00,West,269,7.0,15.0,32,0.00,,,0.00,269.000000,,2013-02-19 00:12:00,
2013-02-18 17:22:00,30.0,4.0,-100.00,West,269,7.0,15.0,32,0.00,,,0.00,269.000000,,2013-02-19 00:22:00,
2013-02-18 17:32:00,30.0,4.0,-100.00,West,269,7.0,15.0,32,0.00,,,0.00,269.000000,,2013-02-19 00:32:00,
2013-02-18 17:54:00,29.0,4.0,-100.00,WSW,250,5.0,12.0,33,0.00,,,0.00,107.000000,,2013-02-19 00:54:00,
2013-02-18 18:03:00,29.0,4.0,-100.00,WSW,250,5.0,12.0,33,0.00,,,0.00,107.000000,,2013-02-19 01:03:00,
2013-02-18 18:12:00,29.0,4.0,-100.00,WSW,250,5.0,12.0,33,0.00,,,0.00,107.000000,,2013-02-19 01:12:00,
2013-02-18 18:22:00,29.0,4.0,-100.00,WSW,250,5.0,12.0,33,0.00,,,0.00,107.000000,,2013-02-19 01:22:00,
2013-02-18 18:32:00,29.0,4.0,-100.00,WSW,250,5.0,12.0,33,0.00,,,0.00,107.000000,,2013-02-19 01:32:00,
2013-02-18 18:55:00,26.0,3.0,-100.00,West,259,2.0,6.0,36,0.00,,,0.00,7.000000,,2013-02-19 01:55:00,
2013-02-18 19:02:00,26.0,3.0,-100.00,West,259,2.0,6.0,36,0.00,,,0.00,7.000000,,2013-02-19 02:02:00,
2013-02-18 19:12:00,26.0,3.0,-100.00,West,259,2.0,6.0,36,0.00,,,0.00,7.000000,,2013-02-19 02:12:00,
2013-02-18 19:22:00,26.0,3.0,-100.00,West,259,2.0,6.0,36,0.00,,,0.00,7.000000,,2013-02-19 02:22:00,
2013-02-18 19:32:00,26.0,3.0,-100.00,West,259,2.0,6.0,36,0.00,,,0.00,7.000000,,2013-02-19 02:32:00,
2013-02-18 19:54:00,25.0,-2.0,-100.00,WNW,283,1.0,5.0,30,0.00,,,0.00,0.000000,,2013-02-19 02:54:00,
2013-02-18 20:04:00,25.0,-2.0,-100.00,WNW,283,1.0,5.0,30,0.00,,,0.00,0.000000,,2013-02-19 03:04:00,
2013-02-18 20:13:00,25.0,-2.0,-100.00,WNW,283,1.0,5.0,30,0.00,,,0.00,0.000000,,2013-02-19 03:13:00,
2013-02-18 20:22:00,25.0,-2.0,-100.00,WNW,283,1.0,5.0,30,0.00,,,0.00,0.000000,,2013-02-19 03:22:00,
2013-02-18 20:32:00,25.0,-2.0,-100.00,WNW,283,1.0,5.0,30,0.00,,,0.00,0.000000,,2013-02-19 03:32:00,
2013-02-18 20:54:00,27.0,2.0,-100.00,SE,130,3.0,4.0,34,0.00,,,0.00,0.000000,,2013-02-19 03:54:00,
2013-02-18 21:02:00,27.0,2.0,-100.00,SE,130,3.0,4.0,34,0.00,,,0.00,0.000000,,2013-02-19 04:02:00,
2013-02-18 21:13:00,27.0,2.0,-100.00,SE,130,3.0,4.0,34,0.00,,,0.00,0.000000,,2013-02-19 04:13:00,
2013-02-18 21:22:00,27.0,2.0,-100.00,SE,130,3.0,4.0,34,0.00,,,0.00,0.000000,,2013-02-19 04:22:00,
2013-02-18 21:32:00,27.0,2.0,-100.00,SE,130,3.0,4.0,34,0.00,,,0.00,0.000000,,2013-02-19 04:32:00,
2013-02-18 21:54:00,25.0,5.0,-100.00,East,86,7.0,8.0,42,0.00,,,0.00,0.000000,,2013-02-19 04:54:00,
2013-02-18 22:02:00,25.0,5.0,-100.00,East,86,7.0,8.0,42,0.00,,,0.00,0.000000,,2013-02-19 05:02:00,
2013-02-18 22:12:00,25.0,5.0,-100.00,East,86,7.0,8.0,42,0.00,,,0.00,0.000000,,2013-02-19 05:12:00,
2013-02-18 22:22:00,25.0,5.0,-100.00,East,86,7.0,8.0,42,0.00,,,0.00,0.000000,,2013-02-19 05:22:00,
2013-02-18 22:32:00,25.0,5.0,-100.00,East,86,7.0,8.0,42,0.00,,,0.00,0.000000,,2013-02-19 05:32:00,
2013-02-18 22:52:00,23.0,4.0,-100.00,East,86,7.0,9.0,44,0.00,,,0.00,0.000000,,2013-02-19 05:52:00,
2013-02-18 23:02:00,23.0,4.0,-100.00,East,86,7.0,9.0,44,0.00,,,0.00,0.000000,,2013-02-19 06:02:00,
2013-02-18 23:11:00,23.0,4.0,-100.00,East,86,7.0,9.0,44,0.00,,,0.00,0.000000,,2013-02-19 06:11:00,
2013-02-18 23:21:00,23.0,4.0,-100.00,East,86,7.0,9.0,44,0.00,,,0.00,0.000000,,2013-02-19 06:21:00,
2013-02-18 23:32:00,23.0,4.0,-100.00,East,86,7.0,9.0,44,0.00,,,0.00,0.000000,,2013-02-19 06:32:00,
2013-02-18 23:52:00,23.0,6.0,-100.00,NE,44,5.0,7.0,47,0.00,,,0.00,0.000000,,2013-02-19 06:52:00,